| time (UTC) | temp F | wind direction | speed knots | gust knots | rain 1hr in | rain 24hr in | rain mn in | humidity % | barometer mb |
| 20260901024004 | 68 | 24 | 0.0 | 0.0 | 0.00 | 0.00 | 0.00 | 92 | 1017.9 |
| 20260901023003 | 68 | 24 | 0.0 | 0.0 | 0.00 | 0.00 | 0.00 | 92 | 1018.1 |
| 20260901022003 | 68 | 24 | 0.0 | 0.0 | 0.00 | 0.00 | 0.00 | 92 | 1018.2 |
| 20260901020004 | 68 | 24 | 0.0 | 0.0 | 0.00 | 0.00 | 0.00 | 92 | 1018.1 |
| 20260901015004 | 68 | 24 | 0.0 | 0.0 | 0.00 | 0.00 | 0.00 | 92 | 1018.1 |
| 20260901013004 | 68 | 24 | 0.0 | 0.0 | 0.00 | 0.00 | 0.00 | 92 | 1018.0 |
| 20260901012003 | 68 | 24 | 0.0 | 0.0 | 0.00 | 0.00 | 0.00 | 91 | 1018.0 |
| 20260901011003 | 68 | 24 | 0.0 | 0.0 | 0.00 | 0.00 | 0.00 | 91 | 1018.0 |
| 20260901010003 | 68 | 24 | 0.0 | 0.0 | 0.00 | 0.00 | 0.00 | 91 | 1017.9 |
| 20260901004003 | 69 | 24 | 0.0 | 0.0 | 0.00 | 0.00 | 0.00 | 90 | 1018.1 |
| 20260901003003 | 69 | 24 | 0.0 | 0.0 | 0.00 | 0.00 | 0.00 | 90 | 1018.0 |
| 20260901002003 | 69 | 24 | 0.0 | 0.0 | 0.00 | 0.00 | 0.00 | 89 | 1017.9 |
| 20260901001003 | 69 | 24 | 0.0 | 0.0 | 0.00 | 0.00 | 0.00 | 89 | 1018.1 |
| 20260901000003 | 69 | 24 | 0.0 | 0.0 | 0.00 | 0.00 | 0.00 | 90 | 1018.1 |
| 20260831235003 | 69 | 24 | 0.0 | 0.0 | 0.00 | 0.00 | 0.00 | 90 | 1018.1 |
| 20260831234004 | 69 | 24 | 0.0 | 0.0 | 0.00 | 0.00 | 0.00 | 90 | 1018.2 |
| 20260831233003 | 69 | 24 | 0.0 | 0.0 | 0.00 | 0.00 | 0.00 | 90 | 1018.2 |
| 20260831232003 | 69 | 24 | 0.0 | 0.0 | 0.00 | 0.00 | 0.00 | 90 | 1018.2 |
| 20260831231003 | 69 | 24 | 0.0 | 0.0 | 0.00 | 0.00 | 0.00 | 90 | 1018.3 |
| 20260831230003 | 69 | 24 | 0.0 | 0.0 | 0.00 | 0.00 | 0.00 | 90 | 1018.3 |
| 20260831224003 | 69 | 24 | 0.0 | 2.6 | 0.00 | 0.00 | 0.00 | 90 | 1018.7 |
| 20260831223004 | 69 | 29 | 1.7 | 2.6 | 0.00 | 0.00 | 0.00 | 89 | 1018.7 |
| 20260831221003 | 69 | 19 | 0.0 | 4.3 | 0.00 | 0.00 | 0.00 | 90 | 1018.8 |
| 20260831220004 | 70 | 39 | 0.0 | 4.3 | 0.00 | 0.00 | 0.00 | 90 | 1018.8 |
| 20260831215004 | 70 | 70 | 1.7 | 4.3 | 0.00 | 0.00 | 0.00 | 88 | 1018.8 |
| 20260831214003 | 71 | 68 | 1.7 | 7.0 | 0.00 | 0.00 | 0.00 | 87 | 1018.7 |
| 20260831213004 | 72 | 66 | 3.5 | 7.8 | 0.00 | 0.00 | 0.00 | 83 | 1018.6 |
| 20260831212004 | 75 | 59 | 5.2 | 10.4 | 0.00 | 0.00 | 0.00 | 77 | 1018.6 |
| 20260831211003 | 76 | 72 | 0.9 | 2.6 | 0.00 | 0.00 | 0.00 | 75 | 1018.4 |
| 20260831210003 | 77 | 238 | 0.0 | 0.0 | 0.00 | 0.00 | 0.00 | 74 | 1018.3 |
| 20260831204003 | 78 | 238 | 0.0 | 0.9 | 0.00 | 0.00 | 0.00 | 72 | 1018.4 |
| 20260831203004 | 78 | 238 | 0.0 | 1.7 | 0.00 | 0.00 | 0.00 | 73 | 1018.4 |
| 20260831202003 | 78 | 267 | 0.0 | 1.7 | 0.00 | 0.00 | 0.00 | 69 | 1018.4 |
| 20260831201003 | 79 | 271 | 0.0 | 0.0 | 0.00 | 0.00 | 0.00 | 70 | 1018.5 |
| 20260831200003 | 79 | 271 | 0.0 | 2.6 | 0.00 | 0.00 | 0.00 | 71 | 1018.5 |
| 20260831195003 | 79 | 133 | 0.0 | 0.9 | 0.00 | 0.00 | 0.00 | 71 | 1018.6 |
| 20260831194003 | 79 | 71 | 0.0 | 1.7 | 0.00 | 0.00 | 0.00 | 72 | 1018.7 |
| 20260831192004 | 79 | 110 | 0.9 | 2.6 | 0.00 | 0.00 | 0.00 | 69 | 1018.8 |
| 20260831191003 | 79 | 83 | 1.7 | 4.3 | 0.00 | 0.00 | 0.00 | 71 | 1018.9 |
| 20260831190003 | 79 | 74 | 2.6 | 5.2 | 0.00 | 0.00 | 0.00 | 70 | 1019.0 |
| 20260831185003 | 78 | 79 | 0.0 | 2.6 | 0.00 | 0.00 | 0.00 | 74 | 1019.2 |
| 20260831184003 | 78 | 61 | 4.3 | 7.8 | 0.00 | 0.00 | 0.00 | 70 | 1019.3 |
| 20260831182003 | 78 | 47 | 1.7 | 5.2 | 0.00 | 0.00 | 0.00 | 71 | 1019.6 |
| 20260831181005 | 78 | 65 | 1.7 | 4.3 | 0.00 | 0.00 | 0.00 | 70 | 1019.5 |
| 20260831175005 | 77 | 71 | 2.6 | 6.1 | 0.00 | 0.00 | 0.00 | 73 | 1019.8 |
| 20260831174003 | 77 | 275 | 0.0 | 2.6 | 0.00 | 0.00 | 0.00 | 70 | 1019.9 |
| 20260831173003 | 77 | 71 | 1.7 | 6.1 | 0.00 | 0.00 | 0.00 | 71 | 1019.9 |
| 20260831172003 | 77 | 31 | 0.0 | 4.3 | 0.00 | 0.00 | 0.00 | 73 | 1020.0 |
| 20260831171003 | 77 | 74 | 1.7 | 5.2 | 0.00 | 0.00 | 0.00 | 70 | 1019.9 |
| 20260831170003 | 78 | 59 | 1.7 | 2.6 | 0.00 | 0.00 | 0.00 | 71 | 1020.0 |
| 20260831165004 | 78 | 80 | 0.9 | 2.6 | 0.00 | 0.00 | 0.00 | 71 | 1020.3 |
| 20260831163004 | 76 | 49 | 0.9 | 5.2 | 0.00 | 0.00 | 0.00 | 75 | 1020.7 |
| 20260831162004 | 75 | 186 | 1.7 | 4.3 | 0.00 | 0.00 | 0.00 | 76 | 1020.7 |
| 20260831161003 | 74 | 92 | 0.9 | 2.6 | 0.00 | 0.00 | 0.00 | 76 | 1020.8 |
| 20260831160003 | 73 | 236 | 2.6 | 5.2 | 0.00 | 0.00 | 0.00 | 77 | 1020.9 |
| 20260831155003 | 72 | 51 | 1.7 | 2.6 | 0.00 | 0.00 | 0.00 | 79 | 1021.0 |
| 20260831154003 | 72 | 79 | 0.9 | 4.3 | 0.00 | 0.00 | 0.00 | 80 | 1021.1 |
| 20260831153004 | 72 | 185 | 0.0 | 2.6 | 0.00 | 0.00 | 0.00 | 81 | 1021.3 |
| 20260831152005 | 71 | 265 | 1.7 | 2.6 | 0.00 | 0.00 | 0.00 | 82 | 1021.3 |
| 20260831150004 | 69 | 255 | 2.6 | 4.3 | 0.00 | 0.00 | 0.00 | 84 | 1021.4 |
| 20260831145004 | 69 | 254 | 2.6 | 5.2 | 0.00 | 0.00 | 0.00 | 84 | 1021.1 |
| 20260831143003 | 70 | 251 | 1.7 | 4.3 | 0.00 | 0.00 | 0.00 | 83 | 1021.1 |
| 20260831142004 | 69 | 246 | 1.7 | 4.3 | 0.00 | 0.00 | 0.00 | 85 | 1021.2 |
| 20260831141005 | 69 | 237 | 1.7 | 7.0 | 0.00 | 0.00 | 0.00 | 85 | 1021.3 |
| 20260831135004 | 68 | 233 | 1.7 | 2.6 | 0.00 | 0.00 | 0.00 | 85 | 1021.3 |
| 20260831134004 | 68 | 255 | 1.7 | 5.2 | 0.00 | 0.00 | 0.00 | 86 | 1021.2 |
| 20260831133004 | 69 | 262 | 3.5 | 6.1 | 0.00 | 0.00 | 0.00 | 85 | 1021.2 |
| 20260831132003 | 68 | 207 | 0.9 | 2.6 | 0.00 | 0.00 | 0.00 | 87 | 1021.2 |
| 20260831131004 | 67 | 260 | 1.7 | 4.3 | 0.00 | 0.00 | 0.00 | 88 | 1021.2 |
| 20260831130003 | 67 | 254 | 0.9 | 2.6 | 0.00 | 0.00 | 0.00 | 90 | 1021.3 |
| 20260831125003 | 66 | 241 | 1.7 | 4.3 | 0.00 | 0.00 | 0.00 | 91 | 1021.3 |
| 20260831123003 | 65 | 256 | 3.5 | 5.2 | 0.00 | 0.00 | 0.00 | 95 | 1021.4 |
| 20260831122003 | 64 | 258 | 0.0 | 0.0 | 0.00 | 0.00 | 0.00 | 96 | 1021.3 |
| 20260831121003 | 63 | 43 | 0.0 | 0.0 | 0.00 | 0.00 | 0.00 | 96 | 1021.2 |
| 20260831120005 | 63 | 113 | 0.0 | 0.0 | 0.00 | 0.00 | 0.00 | 96 | 1021.1 |
| 20260831115003 | 63 | 74 | 0.0 | 0.0 | 0.00 | 0.00 | 0.00 | 96 | 1021.1 |
| 20260831113004 | 62 | 52 | 0.0 | 0.0 | 0.00 | 0.00 | 0.00 | 96 | 1021.0 |
| 20260831112003 | 61 | 52 | 0.0 | 0.0 | 0.00 | 0.00 | 0.00 | 96 | 1021.0 |
| 20260831111002 | 61 | 52 | 0.0 | 0.0 | 0.00 | 0.00 | 0.00 | 96 | 1020.8 |
| 20260831110004 | 61 | 52 | 0.0 | 0.0 | 0.00 | 0.00 | 0.00 | 95 | 1020.6 |
| 20260831105004 | 61 | 52 | 0.0 | 0.0 | 0.00 | 0.00 | 0.00 | 95 | 1020.5 |
| 20260831104003 | 61 | 52 | 0.0 | 0.0 | 0.00 | 0.00 | 0.00 | 95 | 1020.4 |
| 20260831103003 | 61 | 52 | 0.0 | 0.0 | 0.00 | 0.00 | 0.00 | 95 | 1020.3 |
| 20260831102003 | 61 | 55 | 0.0 | 0.0 | 0.00 | 0.00 | 0.00 | 95 | 1020.3 |
| 20260831101003 | 61 | 55 | 0.0 | 0.0 | 0.00 | 0.00 | 0.00 | 95 | 1020.2 |
| 20260831100003 | 61 | 55 | 0.0 | 0.0 | 0.00 | 0.00 | 0.00 | 95 | 1020.2 |
| 20260831095003 | 62 | 58 | 0.0 | 0.0 | 0.00 | 0.00 | 0.00 | 95 | 1020.1 |
| 20260831092003 | 61 | 58 | 0.0 | 0.0 | 0.00 | 0.00 | 0.00 | 95 | 1020.1 |
| 20260831091004 | 61 | 58 | 0.0 | 0.0 | 0.00 | 0.00 | 0.00 | 95 | 1020.0 |
| 20260831090004 | 61 | 58 | 0.0 | 0.0 | 0.00 | 0.00 | 0.00 | 94 | 1019.9 |
| 20260831085004 | 61 | 58 | 0.0 | 0.0 | 0.00 | 0.00 | 0.00 | 95 | 1020.0 |
| 20260831084003 | 62 | 58 | 0.0 | 0.0 | 0.00 | 0.00 | 0.00 | 94 | 1020.0 |
| 20260831083003 | 62 | 58 | 0.0 | 0.0 | 0.00 | 0.00 | 0.00 | 94 | 1019.9 |
| 20260831082004 | 62 | 58 | 0.0 | 0.0 | 0.00 | 0.00 | 0.00 | 95 | 1019.9 |
| 20260831080003 | 62 | 58 | 0.0 | 0.0 | 0.00 | 0.00 | 0.00 | 94 | 1019.7 |
| 20260831075004 | 62 | 58 | 0.0 | 0.9 | 0.00 | 0.00 | 0.00 | 94 | 1019.6 |
| 20260831074003 | 62 | 58 | 0.0 | 0.9 | 0.00 | 0.00 | 0.00 | 94 | 1019.7 |
| 20260831073004 | 62 | 58 | 0.0 | 1.7 | 0.00 | 0.00 | 0.00 | 95 | 1019.6 |
| 20260831072003 | 62 | 32 | 0.0 | 0.0 | 0.00 | 0.00 | 0.00 | 94 | 1019.5 |
| 20260831071003 | 62 | 32 | 0.0 | 2.6 | 0.00 | 0.00 | 0.00 | 94 | 1019.5 |
| 20260831063003 | 61 | 24 | 0.0 | 0.0 | 0.00 | 0.00 | 0.00 | 93 | 1019.7 |
| 20260831061003 | 62 | 24 | 0.0 | 0.0 | 0.00 | 0.00 | 0.00 | 93 | 1019.6 |
| 20260831055003 | 62 | 22 | 0.0 | 0.0 | 0.00 | 0.00 | 0.00 | 93 | 1019.5 |
| 20260831054005 | 62 | 22 | 0.0 | 0.0 | 0.00 | 0.00 | 0.00 | 92 | 1019.5 |
| 20260831053005 | 63 | 22 | 0.0 | 0.0 | 0.00 | 0.00 | 0.00 | 92 | 1019.6 |
| 20260831044004 | 64 | 22 | 0.0 | 1.7 | 0.00 | 0.00 | 0.00 | 91 | 1019.6 |
| 20260831043003 | 64 | 22 | 0.0 | 1.7 | 0.00 | 0.00 | 0.00 | 91 | 1019.6 |
| 20260831042004 | 65 | 163 | 0.0 | 0.0 | 0.00 | 0.00 | 0.00 | 90 | 1019.6 |
| 20260831040005 | 65 | 163 | 0.0 | 0.0 | 0.00 | 0.00 | 0.00 | 90 | 1019.8 |
| 20260831035005 | 65 | 98 | 0.0 | 0.0 | 0.00 | 0.00 | 0.00 | 89 | 1019.6 |
| 20260831034003 | 65 | 79 | 0.0 | 0.0 | 0.00 | 0.00 | 0.00 | 89 | 1019.5 |
| 20260831033004 | 66 | 79 | 0.0 | 1.7 | 0.00 | 0.00 | 0.00 | 88 | 1019.5 |
| 20260831032003 | 66 | 71 | 1.7 | 2.6 | 0.00 | 0.00 | 0.00 | 88 | 1019.5 |
| 20260831031004 | 66 | 59 | 0.9 | 4.3 | 0.00 | 0.00 | 0.00 | 88 | 1019.5 |
| 20260831030004 | 66 | 63 | 1.7 | 4.3 | 0.00 | 0.00 | 0.00 | 88 | 1019.6 |
| 20260831025003 | 66 | 44 | 0.0 | 4.3 | 0.00 | 0.00 | 0.00 | 87 | 1019.6 |